sensor_id;sensor_type;location;lat;lon;timestamp;P1;durP1;ratioP1;P2;durP2;ratioP2
12059;SDS011;6091;51.432;6.880;2022-08-03T00:01:30;1.10;;;1.10;;
12059;SDS011;6091;51.432;6.880;2022-08-03T00:03:57;1.90;;;1.30;;
12059;SDS011;6091;51.432;6.880;2022-08-03T00:06:24;1.40;;;1.30;;
12059;SDS011;6091;51.432;6.880;2022-08-03T00:08:51;1.42;;;1.33;;
12059;SDS011;6091;51.432;6.880;2022-08-03T00:11:18;1.50;;;1.27;;
12059;SDS011;6091;51.432;6.880;2022-08-03T00:13:45;1.27;;;1.17;;
12059;SDS011;6091;51.432;6.880;2022-08-03T00:16:13;1.50;;;1.40;;
12059;SDS011;6091;51.432;6.880;2022-08-03T00:18:40;1.20;;;1.10;;
12059;SDS011;6091;51.432;6.880;2022-08-03T00:21:07;1.40;;;1.27;;
12059;SDS011;6091;51.432;6.880;2022-08-03T00:23:35;1.50;;;1.40;;
12059;SDS011;6091;51.432;6.880;2022-08-03T00:26:18;2.67;;;1.20;;
12059;SDS011;6091;51.432;6.880;2022-08-03T00:28:47;1.38;;;1.27;;
12059;SDS011;6091;51.432;6.880;2022-08-03T00:31:15;1.45;;;1.35;;
12059;SDS011;6091;51.432;6.880;2022-08-03T00:33:58;1.30;;;1.20;;
12059;SDS011;6091;51.432;6.880;2022-08-03T00:36:29;1.98;;;1.10;;
12059;SDS011;6091;51.432;6.880;2022-08-03T00:38:56;1.23;;;1.13;;
12059;SDS011;6091;51.432;6.880;2022-08-03T00:41:23;1.10;;;1.00;;
12059;SDS011;6091;51.432;6.880;2022-08-03T00:43:50;1.40;;;1.25;;
12059;SDS011;6091;51.432;6.880;2022-08-03T00:46:17;1.00;;;1.00;;
12059;SDS011;6091;51.432;6.880;2022-08-03T00:48:48;1.48;;;1.27;;
12059;SDS011;6091;51.432;6.880;2022-08-03T00:51:16;1.50;;;1.40;;
12059;SDS011;6091;51.432;6.880;2022-08-03T00:53:46;1.15;;;0.95;;
12059;SDS011;6091;51.432;6.880;2022-08-03T00:56:14;1.27;;;1.17;;
12059;SDS011;6091;51.432;6.880;2022-08-03T00:58:43;1.30;;;1.20;;
12059;SDS011;6091;51.432;6.880;2022-08-03T01:01:12;1.10;;;1.00;;
12059;SDS011;6091;51.432;6.880;2022-08-03T01:03:40;1.67;;;1.35;;
12059;SDS011;6091;51.432;6.880;2022-08-03T01:06:18;1.42;;;1.23;;
12059;SDS011;6091;51.432;6.880;2022-08-03T01:11:54;2.50;;;1.10;;
12059;SDS011;6091;51.432;6.880;2022-08-03T01:14:45;1.15;;;1.02;;
12059;SDS011;6091;51.432;6.880;2022-08-03T01:17:41;1.27;;;1.17;;
12059;SDS011;6091;51.432;6.880;2022-08-03T01:20:33;1.10;;;1.00;;
12059;SDS011;6091;51.432;6.880;2022-08-03T01:23:09;1.80;;;1.20;;
12059;SDS011;6091;51.432;6.880;2022-08-03T01:26:12;1.10;;;1.02;;
12059;SDS011;6091;51.432;6.880;2022-08-03T01:29:40;1.02;;;0.93;;
12059;SDS011;6091;51.432;6.880;2022-08-03T01:35:31;1.30;;;1.20;;
12059;SDS011;6091;51.432;6.880;2022-08-03T01:38:11;1.33;;;1.17;;
12059;SDS011;6091;51.432;6.880;2022-08-03T01:40:47;1.40;;;1.10;;
12059;SDS011;6091;51.432;6.880;2022-08-03T01:43:17;1.38;;;1.10;;
12059;SDS011;6091;51.432;6.880;2022-08-03T01:46:09;1.15;;;0.98;;
12059;SDS011;6091;51.432;6.880;2022-08-03T01:48:37;1.40;;;1.10;;
12059;SDS011;6091;51.432;6.880;2022-08-03T01:51:08;1.42;;;1.33;;
12059;SDS011;6091;51.432;6.880;2022-08-03T01:53:38;1.25;;;1.05;;
12059;SDS011;6091;51.432;6.880;2022-08-03T01:56:09;1.48;;;1.33;;
12059;SDS011;6091;51.432;6.880;2022-08-03T01:58:38;1.17;;;1.08;;
12059;SDS011;6091;51.432;6.880;2022-08-03T02:01:07;1.90;;;1.00;;
12059;SDS011;6091;51.432;6.880;2022-08-03T02:03:37;1.17;;;1.08;;
12059;SDS011;6091;51.432;6.880;2022-08-03T02:06:26;1.25;;;1.15;;
12059;SDS011;6091;51.432;6.880;2022-08-03T02:09:17;0.98;;;0.95;;
12059;SDS011;6091;51.432;6.880;2022-08-03T02:11:48;1.58;;;1.10;;
12059;SDS011;6091;51.432;6.880;2022-08-03T02:14:18;1.20;;;1.20;;
12059;SDS011;6091;51.432;6.880;2022-08-03T02:16:48;1.30;;;1.20;;
12059;SDS011;6091;51.432;6.880;2022-08-03T02:19:16;1.48;;;1.38;;
12059;SDS011;6091;51.432;6.880;2022-08-03T02:21:44;1.40;;;1.20;;
12059;SDS011;6091;51.432;6.880;2022-08-03T02:24:26;1.20;;;1.10;;
12059;SDS011;6091;51.432;6.880;2022-08-03T02:26:54;0.88;;;0.88;;
12059;SDS011;6091;51.432;6.880;2022-08-03T02:29:24;1.33;;;1.15;;
12059;SDS011;6091;51.432;6.880;2022-08-03T02:32:06;1.30;;;1.20;;
12059;SDS011;6091;51.432;6.880;2022-08-03T02:34:40;1.00;;;1.00;;
12059;SDS011;6091;51.432;6.880;2022-08-03T02:37:11;1.88;;;1.17;;
12059;SDS011;6091;51.432;6.880;2022-08-03T02:39:41;1.42;;;1.33;;
12059;SDS011;6091;51.432;6.880;2022-08-03T02:42:10;2.63;;;1.33;;
12059;SDS011;6091;51.432;6.880;2022-08-03T02:44:40;0.90;;;0.90;;
12059;SDS011;6091;51.432;6.880;2022-08-03T02:47:13;0.95;;;0.95;;
12059;SDS011;6091;51.432;6.880;2022-08-03T02:49:47;1.13;;;1.10;;
12059;SDS011;6091;51.432;6.880;2022-08-03T02:52:22;1.10;;;1.05;;
12059;SDS011;6091;51.432;6.880;2022-08-03T02:54:57;1.48;;;1.38;;
12059;SDS011;6091;51.432;6.880;2022-08-03T02:57:28;1.90;;;1.40;;
12059;SDS011;6091;51.432;6.880;2022-08-03T02:59:58;1.10;;;1.08;;
12059;SDS011;6091;51.432;6.880;2022-08-03T03:02:27;1.30;;;1.20;;
12059;SDS011;6091;51.432;6.880;2022-08-03T03:04:55;1.42;;;1.20;;
12059;SDS011;6091;51.432;6.880;2022-08-03T03:07:43;1.58;;;1.27;;
12059;SDS011;6091;51.432;6.880;2022-08-03T03:10:18;1.20;;;1.10;;
12059;SDS011;6091;51.432;6.880;2022-08-03T03:12:57;1.30;;;1.20;;
12059;SDS011;6091;51.432;6.880;2022-08-03T03:15:27;2.10;;;1.20;;
12059;SDS011;6091;51.432;6.880;2022-08-03T03:17:56;1.55;;;1.20;;
12059;SDS011;6091;51.432;6.880;2022-08-03T03:20:26;1.25;;;1.20;;
12059;SDS011;6091;51.432;6.880;2022-08-03T03:22:57;1.00;;;1.00;;
12059;SDS011;6091;51.432;6.880;2022-08-03T03:25:29;1.52;;;1.30;;
12059;SDS011;6091;51.432;6.880;2022-08-03T03:27:59;1.50;;;1.40;;
12059;SDS011;6091;51.432;6.880;2022-08-03T03:30:27;1.88;;;1.50;;
12059;SDS011;6091;51.432;6.880;2022-08-03T03:32:56;1.30;;;1.20;;
12059;SDS011;6091;51.432;6.880;2022-08-03T03:35:26;1.55;;;1.45;;
12059;SDS011;6091;51.432;6.880;2022-08-03T03:37:54;1.50;;;1.30;;
12059;SDS011;6091;51.432;6.880;2022-08-03T03:40:22;1.30;;;1.20;;
12059;SDS011;6091;51.432;6.880;2022-08-03T03:42:50;1.60;;;1.48;;
12059;SDS011;6091;51.432;6.880;2022-08-03T03:45:18;1.60;;;1.50;;
12059;SDS011;6091;51.432;6.880;2022-08-03T03:47:46;1.50;;;1.40;;
12059;SDS011;6091;51.432;6.880;2022-08-03T03:50:14;1.30;;;1.20;;
12059;SDS011;6091;51.432;6.880;2022-08-03T03:52:44;1.70;;;1.42;;
12059;SDS011;6091;51.432;6.880;2022-08-03T03:55:14;1.45;;;1.35;;
12059;SDS011;6091;51.432;6.880;2022-08-03T03:57:44;2.95;;;1.23;;
12059;SDS011;6091;51.432;6.880;2022-08-03T04:00:12;2.30;;;1.38;;
12059;SDS011;6091;51.432;6.880;2022-08-03T04:02:40;1.33;;;1.23;;
12059;SDS011;6091;51.432;6.880;2022-08-03T04:05:07;1.67;;;1.58;;
12059;SDS011;6091;51.432;6.880;2022-08-03T04:10:53;1.58;;;1.30;;
12059;SDS011;6091;51.432;6.880;2022-08-03T04:13:43;1.25;;;1.15;;
12059;SDS011;6091;51.432;6.880;2022-08-03T04:16:21;2.42;;;1.40;;
12059;SDS011;6091;51.432;6.880;2022-08-03T04:18:58;1.30;;;1.20;;
12059;SDS011;6091;51.432;6.880;2022-08-03T04:21:34;1.40;;;1.30;;
12059;SDS011;6091;51.432;6.880;2022-08-03T04:24:08;1.65;;;1.55;;
12059;SDS011;6091;51.432;6.880;2022-08-03T04:26:39;1.67;;;1.55;;
12059;SDS011;6091;51.432;6.880;2022-08-03T04:29:16;1.30;;;1.20;;
12059;SDS011;6091;51.432;6.880;2022-08-03T04:31:44;1.30;;;1.20;;
12059;SDS011;6091;51.432;6.880;2022-08-03T04:34:13;1.30;;;1.17;;
12059;SDS011;6091;51.432;6.880;2022-08-03T04:36:47;2.63;;;1.27;;
12059;SDS011;6091;51.432;6.880;2022-08-03T04:39:23;1.38;;;1.30;;
12059;SDS011;6091;51.432;6.880;2022-08-03T04:41:53;2.15;;;1.30;;
12059;SDS011;6091;51.432;6.880;2022-08-03T04:44:37;1.40;;;1.30;;
12059;SDS011;6091;51.432;6.880;2022-08-03T04:47:10;1.70;;;1.60;;
12059;SDS011;6091;51.432;6.880;2022-08-03T04:49:37;1.30;;;1.25;;
12059;SDS011;6091;51.432;6.880;2022-08-03T04:52:06;1.35;;;1.25;;
12059;SDS011;6091;51.432;6.880;2022-08-03T04:54:42;1.55;;;1.45;;
12059;SDS011;6091;51.432;6.880;2022-08-03T04:57:16;1.77;;;1.30;;
12059;SDS011;6091;51.432;6.880;2022-08-03T04:59:49;1.58;;;1.48;;
12059;SDS011;6091;51.432;6.880;2022-08-03T05:02:28;1.60;;;1.50;;
12059;SDS011;6091;51.432;6.880;2022-08-03T05:04:59;1.38;;;1.27;;
12059;SDS011;6091;51.432;6.880;2022-08-03T05:07:26;1.40;;;1.30;;
12059;SDS011;6091;51.432;6.880;2022-08-03T05:10:03;1.40;;;1.30;;
12059;SDS011;6091;51.432;6.880;2022-08-03T05:12:41;1.73;;;1.48;;
12059;SDS011;6091;51.432;6.880;2022-08-03T05:15:11;1.35;;;1.25;;
12059;SDS011;6091;51.432;6.880;2022-08-03T05:17:38;1.55;;;1.45;;
12059;SDS011;6091;51.432;6.880;2022-08-03T05:20:06;1.38;;;1.27;;
12059;SDS011;6091;51.432;6.880;2022-08-03T05:22:34;1.83;;;1.60;;
12059;SDS011;6091;51.432;6.880;2022-08-03T05:25:01;1.50;;;1.40;;
12059;SDS011;6091;51.432;6.880;2022-08-03T05:27:28;2.65;;;1.92;;
12059;SDS011;6091;51.432;6.880;2022-08-03T05:29:55;1.40;;;1.30;;
12059;SDS011;6091;51.432;6.880;2022-08-03T05:32:42;1.65;;;1.55;;
12059;SDS011;6091;51.432;6.880;2022-08-03T05:35:09;1.63;;;1.48;;
12059;SDS011;6091;51.432;6.880;2022-08-03T05:37:56;1.70;;;1.60;;
12059;SDS011;6091;51.432;6.880;2022-08-03T05:40:23;1.63;;;1.52;;
12059;SDS011;6091;51.432;6.880;2022-08-03T05:42:52;2.08;;;1.73;;
12059;SDS011;6091;51.432;6.880;2022-08-03T05:45:19;2.35;;;2.15;;
12059;SDS011;6091;51.432;6.880;2022-08-03T05:47:51;2.30;;;2.10;;
12059;SDS011;6091;51.432;6.880;2022-08-03T05:50:19;4.70;;;2.03;;
12059;SDS011;6091;51.432;6.880;2022-08-03T05:52:46;2.33;;;2.13;;
12059;SDS011;6091;51.432;6.880;2022-08-03T05:55:14;2.25;;;2.05;;
12059;SDS011;6091;51.432;6.880;2022-08-03T05:57:41;3.67;;;2.70;;
12059;SDS011;6091;51.432;6.880;2022-08-03T06:00:11;3.25;;;2.20;;
12059;SDS011;6091;51.432;6.880;2022-08-03T06:02:40;2.13;;;1.90;;
12059;SDS011;6091;51.432;6.880;2022-08-03T06:05:08;2.55;;;2.20;;
12059;SDS011;6091;51.432;6.880;2022-08-03T06:07:36;3.08;;;2.58;;
12059;SDS011;6091;51.432;6.880;2022-08-03T06:10:03;2.25;;;1.98;;
12059;SDS011;6091;51.432;6.880;2022-08-03T06:12:51;2.72;;;2.10;;
12059;SDS011;6091;51.432;6.880;2022-08-03T06:15:18;3.10;;;2.17;;
12059;SDS011;6091;51.432;6.880;2022-08-03T06:17:49;3.58;;;2.40;;
12059;SDS011;6091;51.432;6.880;2022-08-03T06:20:18;2.53;;;2.30;;
12059;SDS011;6091;51.432;6.880;2022-08-03T06:22:52;2.10;;;1.90;;
12059;SDS011;6091;51.432;6.880;2022-08-03T06:25:26;3.42;;;2.42;;
12059;SDS011;6091;51.432;6.880;2022-08-03T06:27:54;3.63;;;2.20;;
12059;SDS011;6091;51.432;6.880;2022-08-03T06:30:21;2.63;;;2.42;;
12059;SDS011;6091;51.432;6.880;2022-08-03T06:32:48;4.45;;;2.60;;
12059;SDS011;6091;51.432;6.880;2022-08-03T06:35:17;8.77;;;2.85;;
12059;SDS011;6091;51.432;6.880;2022-08-03T06:37:48;3.03;;;2.10;;
12059;SDS011;6091;51.432;6.880;2022-08-03T06:40:17;1.98;;;1.88;;
12059;SDS011;6091;51.432;6.880;2022-08-03T06:43:05;2.72;;;2.35;;
12059;SDS011;6091;51.432;6.880;2022-08-03T06:45:38;3.50;;;2.50;;
12059;SDS011;6091;51.432;6.880;2022-08-03T06:48:11;3.15;;;1.80;;
12059;SDS011;6091;51.432;6.880;2022-08-03T06:50:39;2.33;;;2.00;;
12059;SDS011;6091;51.432;6.880;2022-08-03T06:53:07;2.70;;;2.13;;
12059;SDS011;6091;51.432;6.880;2022-08-03T06:55:45;2.17;;;1.98;;
12059;SDS011;6091;51.432;6.880;2022-08-03T06:58:17;7.03;;;6.45;;
12059;SDS011;6091;51.432;6.880;2022-08-03T07:00:44;6.10;;;4.47;;
12059;SDS011;6091;51.432;6.880;2022-08-03T07:03:11;5.57;;;2.88;;
12059;SDS011;6091;51.432;6.880;2022-08-03T07:05:38;2.83;;;2.50;;
12059;SDS011;6091;51.432;6.880;2022-08-03T07:08:06;5.78;;;2.97;;
12059;SDS011;6091;51.432;6.880;2022-08-03T07:10:33;3.58;;;2.83;;
12059;SDS011;6091;51.432;6.880;2022-08-03T07:13:01;2.10;;;1.90;;
12059;SDS011;6091;51.432;6.880;2022-08-03T07:15:28;2.50;;;2.20;;
12059;SDS011;6091;51.432;6.880;2022-08-03T07:18:16;2.08;;;1.88;;
12059;SDS011;6091;51.432;6.880;2022-08-03T07:20:54;6.55;;;2.45;;
12059;SDS011;6091;51.432;6.880;2022-08-03T07:23:21;3.65;;;2.78;;
12059;SDS011;6091;51.432;6.880;2022-08-03T07:25:48;3.85;;;2.10;;
12059;SDS011;6091;51.432;6.880;2022-08-03T07:28:16;3.38;;;2.05;;
12059;SDS011;6091;51.432;6.880;2022-08-03T07:30:43;3.50;;;2.45;;
12059;SDS011;6091;51.432;6.880;2022-08-03T07:33:10;6.05;;;2.30;;
12059;SDS011;6091;51.432;6.880;2022-08-03T07:35:37;4.82;;;2.20;;
12059;SDS011;6091;51.432;6.880;2022-08-03T07:38:04;3.58;;;2.40;;
12059;SDS011;6091;51.432;6.880;2022-08-03T07:40:32;6.15;;;2.60;;
12059;SDS011;6091;51.432;6.880;2022-08-03T07:42:59;3.78;;;2.58;;
12059;SDS011;6091;51.432;6.880;2022-08-03T07:45:28;4.22;;;2.20;;
12059;SDS011;6091;51.432;6.880;2022-08-03T07:47:57;3.22;;;2.30;;
12059;SDS011;6091;51.432;6.880;2022-08-03T07:50:24;4.15;;;2.33;;
12059;SDS011;6091;51.432;6.880;2022-08-03T07:52:51;4.43;;;2.10;;
12059;SDS011;6091;51.432;6.880;2022-08-03T07:55:22;5.90;;;2.63;;
12059;SDS011;6091;51.432;6.880;2022-08-03T08:00:31;5.00;;;2.25;;
12059;SDS011;6091;51.432;6.880;2022-08-03T08:02:59;6.00;;;2.28;;
12059;SDS011;6091;51.432;6.880;2022-08-03T08:05:26;3.05;;;2.35;;
12059;SDS011;6091;51.432;6.880;2022-08-03T08:07:53;3.45;;;2.15;;
12059;SDS011;6091;51.432;6.880;2022-08-03T08:10:20;5.30;;;2.30;;
12059;SDS011;6091;51.432;6.880;2022-08-03T08:12:48;2.97;;;2.17;;
12059;SDS011;6091;51.432;6.880;2022-08-03T08:15:15;4.32;;;2.33;;
12059;SDS011;6091;51.432;6.880;2022-08-03T08:17:46;4.57;;;2.08;;
12059;SDS011;6091;51.432;6.880;2022-08-03T08:20:23;3.72;;;2.30;;
12059;SDS011;6091;51.432;6.880;2022-08-03T08:23:04;4.68;;;2.30;;
12059;SDS011;6091;51.432;6.880;2022-08-03T08:25:53;4.30;;;2.05;;
12059;SDS011;6091;51.432;6.880;2022-08-03T08:28:21;4.60;;;2.10;;
12059;SDS011;6091;51.432;6.880;2022-08-03T08:30:59;4.72;;;2.53;;
12059;SDS011;6091;51.432;6.880;2022-08-03T08:33:27;5.20;;;2.90;;
12059;SDS011;6091;51.432;6.880;2022-08-03T08:36:13;3.60;;;1.70;;
12059;SDS011;6091;51.432;6.880;2022-08-03T08:38:41;3.83;;;2.05;;
12059;SDS011;6091;51.432;6.880;2022-08-03T08:41:10;2.50;;;1.98;;
12059;SDS011;6091;51.432;6.880;2022-08-03T08:43:40;3.40;;;1.98;;
12059;SDS011;6091;51.432;6.880;2022-08-03T08:46:11;2.15;;;1.80;;
12059;SDS011;6091;51.432;6.880;2022-08-03T08:48:49;2.97;;;2.00;;
12059;SDS011;6091;51.432;6.880;2022-08-03T08:51:18;3.97;;;2.28;;
12059;SDS011;6091;51.432;6.880;2022-08-03T08:53:51;3.85;;;1.88;;
12059;SDS011;6091;51.432;6.880;2022-08-03T08:56:19;2.70;;;1.80;;
12059;SDS011;6091;51.432;6.880;2022-08-03T08:58:51;4.43;;;2.00;;
12059;SDS011;6091;51.432;6.880;2022-08-03T09:01:23;7.20;;;2.10;;
12059;SDS011;6091;51.432;6.880;2022-08-03T09:03:50;2.58;;;1.90;;
12059;SDS011;6091;51.432;6.880;2022-08-03T09:06:19;3.33;;;1.98;;
12059;SDS011;6091;51.432;6.880;2022-08-03T09:08:48;2.58;;;1.85;;
12059;SDS011;6091;51.432;6.880;2022-08-03T09:11:19;2.92;;;1.67;;
12059;SDS011;6091;51.432;6.880;2022-08-03T09:14:09;4.47;;;1.92;;
12059;SDS011;6091;51.432;6.880;2022-08-03T09:17:01;5.45;;;1.88;;
12059;SDS011;6091;51.432;6.880;2022-08-03T09:19:30;3.35;;;1.92;;
12059;SDS011;6091;51.432;6.880;2022-08-03T09:22:15;2.55;;;1.77;;
12059;SDS011;6091;51.432;6.880;2022-08-03T09:27:50;2.85;;;2.08;;
12059;SDS011;6091;51.432;6.880;2022-08-03T09:30:18;1.65;;;1.52;;
12059;SDS011;6091;51.432;6.880;2022-08-03T09:33:04;2.83;;;2.35;;
12059;SDS011;6091;51.432;6.880;2022-08-03T09:35:45;5.03;;;1.85;;
12059;SDS011;6091;51.432;6.880;2022-08-03T09:38:21;2.08;;;1.45;;
12059;SDS011;6091;51.432;6.880;2022-08-03T09:40:54;2.47;;;1.70;;
12059;SDS011;6091;51.432;6.880;2022-08-03T09:43:26;3.85;;;1.67;;
12059;SDS011;6091;51.432;6.880;2022-08-03T09:46:03;2.78;;;1.88;;
12059;SDS011;6091;51.432;6.880;2022-08-03T09:48:32;2.75;;;1.83;;
12059;SDS011;6091;51.432;6.880;2022-08-03T09:51:01;4.05;;;2.13;;
12059;SDS011;6091;51.432;6.880;2022-08-03T09:53:41;2.35;;;1.73;;
12059;SDS011;6091;51.432;6.880;2022-08-03T09:56:36;3.42;;;2.00;;
12059;SDS011;6091;51.432;6.880;2022-08-03T09:59:13;3.60;;;2.00;;
12059;SDS011;6091;51.432;6.880;2022-08-03T10:01:53;3.90;;;2.10;;
12059;SDS011;6091;51.432;6.880;2022-08-03T10:04:22;3.35;;;2.22;;
12059;SDS011;6091;51.432;6.880;2022-08-03T10:09:36;4.85;;;1.67;;
12059;SDS011;6091;51.432;6.880;2022-08-03T10:12:10;3.38;;;2.13;;
12059;SDS011;6091;51.432;6.880;2022-08-03T10:14:40;4.65;;;1.83;;
12059;SDS011;6091;51.432;6.880;2022-08-03T10:17:10;4.25;;;1.85;;
12059;SDS011;6091;51.432;6.880;2022-08-03T10:19:38;2.13;;;1.80;;
12059;SDS011;6091;51.432;6.880;2022-08-03T10:22:11;2.40;;;2.05;;
12059;SDS011;6091;51.432;6.880;2022-08-03T10:24:45;3.33;;;1.60;;
12059;SDS011;6091;51.432;6.880;2022-08-03T10:27:31;5.57;;;2.10;;
12059;SDS011;6091;51.432;6.880;2022-08-03T10:30:03;5.78;;;2.67;;
12059;SDS011;6091;51.432;6.880;2022-08-03T10:32:40;3.22;;;2.22;;
12059;SDS011;6091;51.432;6.880;2022-08-03T10:35:20;8.90;;;2.03;;
12059;SDS011;6091;51.432;6.880;2022-08-03T10:38:00;6.40;;;2.10;;
12059;SDS011;6091;51.432;6.880;2022-08-03T10:40:34;2.53;;;1.90;;
12059;SDS011;6091;51.432;6.880;2022-08-03T10:43:21;2.78;;;1.98;;
12059;SDS011;6091;51.432;6.880;2022-08-03T10:46:04;3.08;;;2.03;;
12059;SDS011;6091;51.432;6.880;2022-08-03T10:48:34;2.95;;;1.83;;
12059;SDS011;6091;51.432;6.880;2022-08-03T10:51:02;4.07;;;1.92;;
12059;SDS011;6091;51.432;6.880;2022-08-03T10:53:37;2.50;;;1.98;;
12059;SDS011;6091;51.432;6.880;2022-08-03T11:02:12;3.33;;;1.50;;
12059;SDS011;6091;51.432;6.880;2022-08-03T11:04:40;3.33;;;1.80;;
12059;SDS011;6091;51.432;6.880;2022-08-03T11:09:49;3.40;;;1.80;;
12059;SDS011;6091;51.432;6.880;2022-08-03T11:12:32;2.67;;;1.70;;
12059;SDS011;6091;51.432;6.880;2022-08-03T11:15:00;3.10;;;1.75;;
12059;SDS011;6091;51.432;6.880;2022-08-03T11:17:34;5.85;;;2.05;;
12059;SDS011;6091;51.432;6.880;2022-08-03T11:20:42;2.40;;;1.67;;
12059;SDS011;6091;51.432;6.880;2022-08-03T11:23:09;4.15;;;1.85;;
12059;SDS011;6091;51.432;6.880;2022-08-03T11:28:47;2.00;;;1.27;;
12059;SDS011;6091;51.432;6.880;2022-08-03T11:34:08;1.83;;;1.35;;
12059;SDS011;6091;51.432;6.880;2022-08-03T11:45:57;8.27;;;1.60;;
12059;SDS011;6091;51.432;6.880;2022-08-03T11:48:55;3.80;;;1.65;;
12059;SDS011;6091;51.432;6.880;2022-08-03T11:51:36;1.90;;;1.65;;
12059;SDS011;6091;51.432;6.880;2022-08-03T11:54:05;2.88;;;1.70;;
12059;SDS011;6091;51.432;6.880;2022-08-03T11:56:46;1.73;;;1.42;;
12059;SDS011;6091;51.432;6.880;2022-08-03T11:59:15;3.05;;;2.00;;
12059;SDS011;6091;51.432;6.880;2022-08-03T12:01:47;2.42;;;1.40;;
12059;SDS011;6091;51.432;6.880;2022-08-03T12:04:15;4.15;;;1.77;;
12059;SDS011;6091;51.432;6.880;2022-08-03T12:06:56;1.83;;;1.60;;
12059;SDS011;6091;51.432;6.880;2022-08-03T12:09:25;3.80;;;1.55;;
12059;SDS011;6091;51.432;6.880;2022-08-03T12:11:52;3.00;;;1.40;;
12059;SDS011;6091;51.432;6.880;2022-08-03T12:14:26;5.20;;;1.50;;
12059;SDS011;6091;51.432;6.880;2022-08-03T12:17:15;3.53;;;1.67;;
12059;SDS011;6091;51.432;6.880;2022-08-03T12:19:43;5.43;;;1.40;;
12059;SDS011;6091;51.432;6.880;2022-08-03T12:22:10;7.72;;;1.88;;
12059;SDS011;6091;51.432;6.880;2022-08-03T12:24:44;3.67;;;1.40;;
12059;SDS011;6091;51.432;6.880;2022-08-03T12:27:21;2.35;;;1.50;;
12059;SDS011;6091;51.432;6.880;2022-08-03T12:29:53;4.60;;;1.95;;
12059;SDS011;6091;51.432;6.880;2022-08-03T12:32:24;4.78;;;1.77;;
12059;SDS011;6091;51.432;6.880;2022-08-03T12:34:53;2.35;;;1.70;;
12059;SDS011;6091;51.432;6.880;2022-08-03T12:37:31;1.80;;;1.50;;
12059;SDS011;6091;51.432;6.880;2022-08-03T12:39:59;4.13;;;1.50;;
12059;SDS011;6091;51.432;6.880;2022-08-03T12:42:36;2.05;;;1.40;;
12059;SDS011;6091;51.432;6.880;2022-08-03T12:48:07;2.20;;;1.38;;
12059;SDS011;6091;51.432;6.880;2022-08-03T12:50:38;3.90;;;1.75;;
12059;SDS011;6091;51.432;6.880;2022-08-03T12:53:09;2.60;;;1.83;;
12059;SDS011;6091;51.432;6.880;2022-08-03T12:55:36;4.22;;;1.77;;
12059;SDS011;6091;51.432;6.880;2022-08-03T12:58:34;3.47;;;1.70;;
12059;SDS011;6091;51.432;6.880;2022-08-03T13:01:03;3.75;;;1.77;;
12059;SDS011;6091;51.432;6.880;2022-08-03T13:03:39;2.50;;;1.67;;
12059;SDS011;6091;51.432;6.880;2022-08-03T13:06:16;3.72;;;1.75;;
12059;SDS011;6091;51.432;6.880;2022-08-03T13:08:49;2.05;;;1.48;;
12059;SDS011;6091;51.432;6.880;2022-08-03T13:11:29;1.80;;;1.55;;
12059;SDS011;6091;51.432;6.880;2022-08-03T13:14:17;3.35;;;1.30;;
12059;SDS011;6091;51.432;6.880;2022-08-03T13:16:46;3.15;;;1.65;;
12059;SDS011;6091;51.432;6.880;2022-08-03T13:19:16;3.95;;;1.60;;
12059;SDS011;6091;51.432;6.880;2022-08-03T13:21:43;3.15;;;1.52;;
12059;SDS011;6091;51.432;6.880;2022-08-03T13:24:28;2.97;;;1.75;;
12059;SDS011;6091;51.432;6.880;2022-08-03T13:26:57;3.13;;;1.38;;
12059;SDS011;6091;51.432;6.880;2022-08-03T13:29:25;2.75;;;1.70;;
12059;SDS011;6091;51.432;6.880;2022-08-03T13:31:52;6.38;;;1.55;;
12059;SDS011;6091;51.432;6.880;2022-08-03T13:34:19;1.85;;;1.33;;
12059;SDS011;6091;51.432;6.880;2022-08-03T13:36:49;3.78;;;1.55;;
12059;SDS011;6091;51.432;6.880;2022-08-03T13:39:34;3.90;;;1.40;;
12059;SDS011;6091;51.432;6.880;2022-08-03T13:42:22;4.22;;;2.00;;
12059;SDS011;6091;51.432;6.880;2022-08-03T13:44:50;5.15;;;1.92;;
12059;SDS011;6091;51.432;6.880;2022-08-03T13:47:17;1.60;;;1.48;;
12059;SDS011;6091;51.432;6.880;2022-08-03T13:49:45;3.50;;;1.70;;
12059;SDS011;6091;51.432;6.880;2022-08-03T13:52:26;7.15;;;1.52;;
12059;SDS011;6091;51.432;6.880;2022-08-03T13:54:53;3.38;;;1.70;;
12059;SDS011;6091;51.432;6.880;2022-08-03T13:57:20;3.13;;;1.58;;
12059;SDS011;6091;51.432;6.880;2022-08-03T14:00:07;2.78;;;1.50;;
12059;SDS011;6091;51.432;6.880;2022-08-03T14:02:35;2.10;;;1.40;;
12059;SDS011;6091;51.432;6.880;2022-08-03T14:05:03;5.10;;;1.73;;
12059;SDS011;6091;51.432;6.880;2022-08-03T14:07:31;2.35;;;1.25;;
12059;SDS011;6091;51.432;6.880;2022-08-03T14:09:58;3.72;;;1.33;;
12059;SDS011;6091;51.432;6.880;2022-08-03T14:12:27;1.95;;;1.27;;
12059;SDS011;6091;51.432;6.880;2022-08-03T14:14:54;2.45;;;1.38;;
12059;SDS011;6091;51.432;6.880;2022-08-03T14:17:26;2.22;;;1.23;;
12059;SDS011;6091;51.432;6.880;2022-08-03T14:20:07;1.67;;;1.38;;
12059;SDS011;6091;51.432;6.880;2022-08-03T14:22:57;2.78;;;1.10;;
12059;SDS011;6091;51.432;6.880;2022-08-03T14:25:24;2.08;;;1.20;;
12059;SDS011;6091;51.432;6.880;2022-08-03T14:27:51;3.05;;;1.58;;
12059;SDS011;6091;51.432;6.880;2022-08-03T14:30:18;3.85;;;1.30;;
12059;SDS011;6091;51.432;6.880;2022-08-03T14:32:45;3.55;;;1.40;;
12059;SDS011;6091;51.432;6.880;2022-08-03T14:35:12;7.47;;;1.20;;
12059;SDS011;6091;51.432;6.880;2022-08-03T14:37:39;10.60;;;2.65;;
12059;SDS011;6091;51.432;6.880;2022-08-03T14:40:06;14.00;;;2.67;;
12059;SDS011;6091;51.432;6.880;2022-08-03T14:42:34;17.27;;;3.95;;
12059;SDS011;6091;51.432;6.880;2022-08-03T14:45:01;9.35;;;3.20;;
12059;SDS011;6091;51.432;6.880;2022-08-03T14:47:44;12.73;;;2.90;;
12059;SDS011;6091;51.432;6.880;2022-08-03T14:50:31;9.13;;;2.55;;
12059;SDS011;6091;51.432;6.880;2022-08-03T14:53:10;9.93;;;2.38;;
12059;SDS011;6091;51.432;6.880;2022-08-03T14:55:38;4.35;;;1.58;;
12059;SDS011;6091;51.432;6.880;2022-08-03T14:58:16;4.22;;;1.88;;
12059;SDS011;6091;51.432;6.880;2022-08-03T15:00:47;6.53;;;2.15;;
12059;SDS011;6091;51.432;6.880;2022-08-03T15:03:16;3.45;;;1.48;;
12059;SDS011;6091;51.432;6.880;2022-08-03T15:05:50;3.08;;;1.58;;
12059;SDS011;6091;51.432;6.880;2022-08-03T15:08:19;5.55;;;1.63;;
12059;SDS011;6091;51.432;6.880;2022-08-03T15:10:48;3.20;;;1.52;;
12059;SDS011;6091;51.432;6.880;2022-08-03T15:13:16;3.60;;;1.30;;
12059;SDS011;6091;51.432;6.880;2022-08-03T15:15:44;2.22;;;1.30;;
12059;SDS011;6091;51.432;6.880;2022-08-03T15:18:13;2.67;;;1.25;;
12059;SDS011;6091;51.432;6.880;2022-08-03T15:20:40;1.77;;;1.20;;
12059;SDS011;6091;51.432;6.880;2022-08-03T15:23:12;2.10;;;1.10;;
12059;SDS011;6091;51.432;6.880;2022-08-03T15:25:41;2.03;;;1.23;;
12059;SDS011;6091;51.432;6.880;2022-08-03T15:28:30;1.50;;;0.93;;
12059;SDS011;6091;51.432;6.880;2022-08-03T15:30:58;1.52;;;0.98;;
12059;SDS011;6091;51.432;6.880;2022-08-03T15:33:26;2.00;;;1.20;;
12059;SDS011;6091;51.432;6.880;2022-08-03T15:35:54;1.15;;;0.95;;
12059;SDS011;6091;51.432;6.880;2022-08-03T15:38:22;2.53;;;1.30;;
12059;SDS011;6091;51.432;6.880;2022-08-03T15:40:51;2.25;;;1.00;;
12059;SDS011;6091;51.432;6.880;2022-08-03T15:43:20;3.00;;;0.90;;
12059;SDS011;6091;51.432;6.880;2022-08-03T15:45:48;2.08;;;1.05;;
12059;SDS011;6091;51.432;6.880;2022-08-03T15:48:36;1.95;;;0.90;;
12059;SDS011;6091;51.432;6.880;2022-08-03T15:51:04;1.77;;;1.02;;
12059;SDS011;6091;51.432;6.880;2022-08-03T15:53:32;1.33;;;0.95;;
12059;SDS011;6091;51.432;6.880;2022-08-03T15:56:00;1.35;;;0.90;;
12059;SDS011;6091;51.432;6.880;2022-08-03T15:58:36;2.55;;;1.00;;
12059;SDS011;6091;51.432;6.880;2022-08-03T16:01:24;2.95;;;1.10;;
12059;SDS011;6091;51.432;6.880;2022-08-03T16:03:52;2.22;;;0.85;;
12059;SDS011;6091;51.432;6.880;2022-08-03T16:06:19;1.00;;;0.80;;
12059;SDS011;6091;51.432;6.880;2022-08-03T16:09:02;1.20;;;0.93;;
12059;SDS011;6091;51.432;6.880;2022-08-03T16:11:53;1.48;;;0.85;;
12059;SDS011;6091;51.432;6.880;2022-08-03T16:14:21;1.17;;;1.02;;
12059;SDS011;6091;51.432;6.880;2022-08-03T16:17:00;2.75;;;0.80;;
12059;SDS011;6091;51.432;6.880;2022-08-03T16:19:28;0.93;;;0.77;;